sensor_id;sensor_type;location;lat;lon;timestamp;P1;durP1;ratioP1;P2;durP2;ratioP2
57593;SDS011;43423;46.510;6.686;2024-03-23T00:51:51;4.88;;;2.15;;
57593;SDS011;43423;46.510;6.686;2024-03-23T00:54:17;4.53;;;2.25;;
57593;SDS011;43423;46.510;6.686;2024-03-23T00:56:42;3.35;;;2.03;;
57593;SDS011;43423;46.510;6.686;2024-03-23T00:59:08;4.57;;;2.13;;
57593;SDS011;43423;46.510;6.686;2024-03-23T01:01:34;3.85;;;2.10;;
57593;SDS011;43423;46.510;6.686;2024-03-23T01:03:59;3.08;;;2.13;;
57593;SDS011;43423;46.510;6.686;2024-03-23T01:06:25;7.50;;;2.17;;
57593;SDS011;43423;46.510;6.686;2024-03-23T01:08:50;3.50;;;2.25;;
57593;SDS011;43423;46.510;6.686;2024-03-23T01:11:17;5.07;;;2.22;;
57593;SDS011;43423;46.510;6.686;2024-03-23T01:13:43;4.43;;;2.50;;
57593;SDS011;43423;46.510;6.686;2024-03-23T01:16:09;5.07;;;2.30;;
57593;SDS011;43423;46.510;6.686;2024-03-23T01:18:34;4.53;;;2.63;;
57593;SDS011;43423;46.510;6.686;2024-03-23T01:21:00;4.18;;;1.92;;
57593;SDS011;43423;46.510;6.686;2024-03-23T01:23:25;5.03;;;2.70;;
57593;SDS011;43423;46.510;6.686;2024-03-23T01:25:52;5.15;;;1.98;;
57593;SDS011;43423;46.510;6.686;2024-03-23T01:28:19;5.47;;;2.50;;
57593;SDS011;43423;46.510;6.686;2024-03-23T01:30:47;4.90;;;2.10;;
57593;SDS011;43423;46.510;6.686;2024-03-23T01:33:13;5.35;;;2.67;;
57593;SDS011;43423;46.510;6.686;2024-03-23T01:35:39;3.55;;;2.00;;
57593;SDS011;43423;46.510;6.686;2024-03-23T01:38:05;3.70;;;2.35;;
57593;SDS011;43423;46.510;6.686;2024-03-23T01:40:32;4.53;;;2.45;;
57593;SDS011;43423;46.510;6.686;2024-03-23T01:42:57;5.82;;;2.40;;
57593;SDS011;43423;46.510;6.686;2024-03-23T01:45:24;3.47;;;2.30;;
57593;SDS011;43423;46.510;6.686;2024-03-23T01:47:51;4.97;;;2.55;;
57593;SDS011;43423;46.510;6.686;2024-03-23T01:50:17;8.20;;;2.53;;
57593;SDS011;43423;46.510;6.686;2024-03-23T01:52:43;4.47;;;2.42;;
57593;SDS011;43423;46.510;6.686;2024-03-23T01:55:09;5.43;;;2.28;;
57593;SDS011;43423;46.510;6.686;2024-03-23T01:57:35;3.38;;;2.42;;
57593;SDS011;43423;46.510;6.686;2024-03-23T02:00:01;3.38;;;2.03;;
57593;SDS011;43423;46.510;6.686;2024-03-23T02:02:26;5.28;;;2.60;;
57593;SDS011;43423;46.510;6.686;2024-03-23T02:04:52;4.15;;;2.38;;
57593;SDS011;43423;46.510;6.686;2024-03-23T02:07:18;5.28;;;2.80;;
57593;SDS011;43423;46.510;6.686;2024-03-23T02:09:44;3.33;;;2.42;;
57593;SDS011;43423;46.510;6.686;2024-03-23T02:12:09;4.25;;;2.30;;
57593;SDS011;43423;46.510;6.686;2024-03-23T02:14:35;4.28;;;2.10;;
57593;SDS011;43423;46.510;6.686;2024-03-23T02:17:01;5.60;;;2.15;;
57593;SDS011;43423;46.510;6.686;2024-03-23T02:19:27;5.07;;;2.33;;
57593;SDS011;43423;46.510;6.686;2024-03-23T02:21:52;5.03;;;2.35;;
57593;SDS011;43423;46.510;6.686;2024-03-23T02:24:18;5.03;;;2.20;;
57593;SDS011;43423;46.510;6.686;2024-03-23T02:26:43;5.00;;;2.30;;
57593;SDS011;43423;46.510;6.686;2024-03-23T02:29:09;3.22;;;1.92;;
57593;SDS011;43423;46.510;6.686;2024-03-23T02:31:35;4.60;;;2.40;;
57593;SDS011;43423;46.510;6.686;2024-03-23T02:34:01;3.47;;;2.22;;
57593;SDS011;43423;46.510;6.686;2024-03-23T02:36:27;3.00;;;2.10;;
57593;SDS011;43423;46.510;6.686;2024-03-23T02:38:52;4.93;;;2.40;;
57593;SDS011;43423;46.510;6.686;2024-03-23T02:41:18;5.68;;;2.33;;
57593;SDS011;43423;46.510;6.686;2024-03-23T02:43:49;4.25;;;2.05;;
57593;SDS011;43423;46.510;6.686;2024-03-23T02:46:17;8.00;;;2.28;;
57593;SDS011;43423;46.510;6.686;2024-03-23T02:48:43;3.25;;;2.03;;
57593;SDS011;43423;46.510;6.686;2024-03-23T02:51:09;2.72;;;1.63;;
57593;SDS011;43423;46.510;6.686;2024-03-23T02:53:34;3.33;;;2.03;;
57593;SDS011;43423;46.510;6.686;2024-03-23T02:56:00;3.92;;;2.17;;
57593;SDS011;43423;46.510;6.686;2024-03-23T02:58:26;7.60;;;4.65;;
57593;SDS011;43423;46.510;6.686;2024-03-23T03:00:51;4.95;;;1.90;;
57593;SDS011;43423;46.510;6.686;2024-03-23T03:03:17;5.38;;;2.45;;
57593;SDS011;43423;46.510;6.686;2024-03-23T03:05:43;3.72;;;2.17;;
57593;SDS011;43423;46.510;6.686;2024-03-23T03:08:08;5.22;;;2.15;;
57593;SDS011;43423;46.510;6.686;2024-03-23T03:10:34;2.13;;;1.80;;
57593;SDS011;43423;46.510;6.686;2024-03-23T03:13:00;3.30;;;2.05;;
57593;SDS011;43423;46.510;6.686;2024-03-23T03:15:26;3.80;;;2.20;;
57593;SDS011;43423;46.510;6.686;2024-03-23T03:17:52;3.47;;;1.92;;
57593;SDS011;43423;46.510;6.686;2024-03-23T03:20:17;2.60;;;1.90;;
57593;SDS011;43423;46.510;6.686;2024-03-23T03:22:43;3.72;;;1.70;;
57593;SDS011;43423;46.510;6.686;2024-03-23T03:25:09;4.97;;;1.67;;
57593;SDS011;43423;46.510;6.686;2024-03-23T03:27:35;4.03;;;2.05;;
57593;SDS011;43423;46.510;6.686;2024-03-23T03:30:01;2.75;;;1.58;;
57593;SDS011;43423;46.510;6.686;2024-03-23T03:32:28;4.03;;;2.15;;
57593;SDS011;43423;46.510;6.686;2024-03-23T03:34:54;4.45;;;2.28;;
57593;SDS011;43423;46.510;6.686;2024-03-23T03:37:20;4.72;;;2.10;;
57593;SDS011;43423;46.510;6.686;2024-03-23T03:39:46;3.85;;;1.90;;
57593;SDS011;43423;46.510;6.686;2024-03-23T03:42:11;2.58;;;1.90;;
57593;SDS011;43423;46.510;6.686;2024-03-23T03:44:37;6.00;;;2.00;;
57593;SDS011;43423;46.510;6.686;2024-03-23T03:47:02;4.75;;;2.28;;
57593;SDS011;43423;46.510;6.686;2024-03-23T03:49:28;2.33;;;1.83;;
57593;SDS011;43423;46.510;6.686;2024-03-23T03:51:54;3.88;;;2.20;;
57593;SDS011;43423;46.510;6.686;2024-03-23T03:54:19;5.68;;;2.00;;
57593;SDS011;43423;46.510;6.686;2024-03-23T03:56:46;6.55;;;2.00;;
57593;SDS011;43423;46.510;6.686;2024-03-23T03:59:11;7.68;;;2.10;;
57593;SDS011;43423;46.510;6.686;2024-03-23T04:01:37;5.63;;;2.05;;
57593;SDS011;43423;46.510;6.686;2024-03-23T04:04:02;4.60;;;2.25;;
57593;SDS011;43423;46.510;6.686;2024-03-23T04:06:28;7.05;;;2.42;;
57593;SDS011;43423;46.510;6.686;2024-03-23T04:08:54;4.65;;;1.95;;
57593;SDS011;43423;46.510;6.686;2024-03-23T04:11:19;5.53;;;2.50;;
57593;SDS011;43423;46.510;6.686;2024-03-23T04:13:45;5.07;;;2.05;;
57593;SDS011;43423;46.510;6.686;2024-03-23T04:16:11;5.28;;;2.28;;
57593;SDS011;43423;46.510;6.686;2024-03-23T04:18:36;12.30;;;2.80;;
57593;SDS011;43423;46.510;6.686;2024-03-23T04:21:02;3.58;;;2.22;;
57593;SDS011;43423;46.510;6.686;2024-03-23T04:23:28;3.33;;;2.17;;
57593;SDS011;43423;46.510;6.686;2024-03-23T04:25:54;6.38;;;2.80;;
57593;SDS011;43423;46.510;6.686;2024-03-23T04:28:19;3.67;;;2.70;;
57593;SDS011;43423;46.510;6.686;2024-03-23T04:30:45;3.42;;;2.03;;
57593;SDS011;43423;46.510;6.686;2024-03-23T04:33:10;9.77;;;2.72;;
57593;SDS011;43423;46.510;6.686;2024-03-23T04:35:36;4.55;;;2.72;;
57593;SDS011;43423;46.510;6.686;2024-03-23T04:38:02;5.10;;;2.28;;
57593;SDS011;43423;46.510;6.686;2024-03-23T04:40:27;6.45;;;2.95;;
57593;SDS011;43423;46.510;6.686;2024-03-23T04:42:53;4.95;;;2.80;;
57593;SDS011;43423;46.510;6.686;2024-03-23T04:45:19;7.15;;;3.13;;
57593;SDS011;43423;46.510;6.686;2024-03-23T04:47:44;4.55;;;2.70;;
57593;SDS011;43423;46.510;6.686;2024-03-23T04:50:10;7.45;;;2.72;;
57593;SDS011;43423;46.510;6.686;2024-03-23T04:52:36;7.07;;;3.15;;
57593;SDS011;43423;46.510;6.686;2024-03-23T04:55:02;4.85;;;2.88;;
57593;SDS011;43423;46.510;6.686;2024-03-23T04:57:27;10.27;;;3.30;;
57593;SDS011;43423;46.510;6.686;2024-03-23T04:59:53;7.25;;;2.80;;
57593;SDS011;43423;46.510;6.686;2024-03-23T05:02:18;6.80;;;3.20;;
57593;SDS011;43423;46.510;6.686;2024-03-23T05:04:44;4.82;;;2.65;;
57593;SDS011;43423;46.510;6.686;2024-03-23T05:07:10;9.65;;;3.20;;
57593;SDS011;43423;46.510;6.686;2024-03-23T05:09:36;6.80;;;3.15;;
57593;SDS011;43423;46.510;6.686;2024-03-23T05:12:02;7.55;;;4.38;;
57593;SDS011;43423;46.510;6.686;2024-03-23T05:14:28;9.77;;;3.90;;
57593;SDS011;43423;46.510;6.686;2024-03-23T05:16:54;10.30;;;5.65;;
57593;SDS011;43423;46.510;6.686;2024-03-23T05:19:21;13.68;;;4.82;;
57593;SDS011;43423;46.510;6.686;2024-03-23T05:21:47;7.03;;;4.18;;
57593;SDS011;43423;46.510;6.686;2024-03-23T05:24:13;5.35;;;3.45;;
57593;SDS011;43423;46.510;6.686;2024-03-23T05:26:39;9.77;;;4.25;;
57593;SDS011;43423;46.510;6.686;2024-03-23T05:29:04;6.07;;;4.05;;
57593;SDS011;43423;46.510;6.686;2024-03-23T05:31:32;6.45;;;3.20;;
57593;SDS011;43423;46.510;6.686;2024-03-23T05:33:58;6.68;;;4.10;;
57593;SDS011;43423;46.510;6.686;2024-03-23T05:36:23;9.77;;;3.85;;
57593;SDS011;43423;46.510;6.686;2024-03-23T05:38:50;6.43;;;3.53;;
57593;SDS011;43423;46.510;6.686;2024-03-23T05:41:15;5.97;;;3.60;;
57593;SDS011;43423;46.510;6.686;2024-03-23T05:43:41;8.77;;;4.32;;
57593;SDS011;43423;46.510;6.686;2024-03-23T05:46:07;6.43;;;3.80;;
57593;SDS011;43423;46.510;6.686;2024-03-23T05:48:36;6.38;;;3.55;;
57593;SDS011;43423;46.510;6.686;2024-03-23T05:51:01;6.68;;;4.15;;
57593;SDS011;43423;46.510;6.686;2024-03-23T05:53:28;7.05;;;4.10;;
57593;SDS011;43423;46.510;6.686;2024-03-23T05:56:01;6.13;;;3.50;;
57593;SDS011;43423;46.510;6.686;2024-03-23T05:58:32;6.07;;;3.65;;
57593;SDS011;43423;46.510;6.686;2024-03-23T06:00:58;6.55;;;3.30;;
57593;SDS011;43423;46.510;6.686;2024-03-23T06:03:28;10.48;;;3.38;;
57593;SDS011;43423;46.510;6.686;2024-03-23T06:05:54;5.55;;;3.78;;
57593;SDS011;43423;46.510;6.686;2024-03-23T06:08:21;5.10;;;3.35;;
57593;SDS011;43423;46.510;6.686;2024-03-23T06:10:47;6.40;;;3.05;;
57593;SDS011;43423;46.510;6.686;2024-03-23T06:13:13;4.05;;;2.60;;
57593;SDS011;43423;46.510;6.686;2024-03-23T06:15:39;5.63;;;2.55;;
57593;SDS011;43423;46.510;6.686;2024-03-23T06:18:05;7.93;;;3.08;;
57593;SDS011;43423;46.510;6.686;2024-03-23T06:20:32;4.43;;;2.45;;
57593;SDS011;43423;46.510;6.686;2024-03-23T06:22:59;4.18;;;2.35;;
57593;SDS011;43423;46.510;6.686;2024-03-23T06:25:25;3.85;;;2.47;;
57593;SDS011;43423;46.510;6.686;2024-03-23T06:27:51;4.50;;;2.70;;
57593;SDS011;43423;46.510;6.686;2024-03-23T06:30:17;3.97;;;2.60;;
57593;SDS011;43423;46.510;6.686;2024-03-23T06:32:42;4.18;;;2.28;;
57593;SDS011;43423;46.510;6.686;2024-03-23T06:35:08;3.72;;;2.00;;
57593;SDS011;43423;46.510;6.686;2024-03-23T06:37:37;2.72;;;2.20;;
57593;SDS011;43423;46.510;6.686;2024-03-23T06:40:04;3.17;;;2.08;;
57593;SDS011;43423;46.510;6.686;2024-03-23T06:42:33;3.17;;;2.20;;
57593;SDS011;43423;46.510;6.686;2024-03-23T06:44:59;2.60;;;1.80;;
57593;SDS011;43423;46.510;6.686;2024-03-23T06:47:25;9.50;;;1.98;;
57593;SDS011;43423;46.510;6.686;2024-03-23T06:49:50;4.70;;;2.08;;
57593;SDS011;43423;46.510;6.686;2024-03-23T06:52:16;2.55;;;2.33;;
57593;SDS011;43423;46.510;6.686;2024-03-23T06:54:42;3.40;;;2.22;;
57593;SDS011;43423;46.510;6.686;2024-03-23T06:57:10;4.75;;;2.80;;
57593;SDS011;43423;46.510;6.686;2024-03-23T06:59:37;2.30;;;1.73;;
57593;SDS011;43423;46.510;6.686;2024-03-23T07:02:04;3.55;;;2.03;;
57593;SDS011;43423;46.510;6.686;2024-03-23T07:04:30;2.53;;;1.95;;
57593;SDS011;43423;46.510;6.686;2024-03-23T07:06:56;2.45;;;1.67;;
57593;SDS011;43423;46.510;6.686;2024-03-23T07:09:21;5.22;;;2.08;;
57593;SDS011;43423;46.510;6.686;2024-03-23T07:11:53;3.22;;;1.98;;
57593;SDS011;43423;46.510;6.686;2024-03-23T07:14:19;2.55;;;1.80;;
57593;SDS011;43423;46.510;6.686;2024-03-23T07:16:45;3.17;;;2.00;;
57593;SDS011;43423;46.510;6.686;2024-03-23T07:19:11;5.38;;;2.22;;
57593;SDS011;43423;46.510;6.686;2024-03-23T07:21:37;3.70;;;2.15;;
57593;SDS011;43423;46.510;6.686;2024-03-23T07:24:02;2.47;;;1.67;;
57593;SDS011;43423;46.510;6.686;2024-03-23T07:26:28;3.17;;;1.80;;
57593;SDS011;43423;46.510;6.686;2024-03-23T07:28:53;4.78;;;2.10;;
57593;SDS011;43423;46.510;6.686;2024-03-23T07:31:19;2.50;;;1.67;;
57593;SDS011;43423;46.510;6.686;2024-03-23T07:33:46;7.53;;;2.20;;
57593;SDS011;43423;46.510;6.686;2024-03-23T07:36:12;2.35;;;1.42;;
57593;SDS011;43423;46.510;6.686;2024-03-23T07:38:42;4.43;;;1.73;;
57593;SDS011;43423;46.510;6.686;2024-03-23T07:41:11;2.83;;;1.50;;
57593;SDS011;43423;46.510;6.686;2024-03-23T07:43:39;1.48;;;1.13;;
57593;SDS011;43423;46.510;6.686;2024-03-23T07:46:06;1.42;;;0.93;;
57593;SDS011;43423;46.510;6.686;2024-03-23T07:48:32;1.48;;;1.20;;
57593;SDS011;43423;46.510;6.686;2024-03-23T07:51:01;1.00;;;0.80;;
57593;SDS011;43423;46.510;6.686;2024-03-23T07:53:29;1.23;;;0.70;;
57593;SDS011;43423;46.510;6.686;2024-03-23T07:55:57;1.15;;;0.50;;
57593;SDS011;43423;46.510;6.686;2024-03-23T07:58:24;1.00;;;0.50;;
57593;SDS011;43423;46.510;6.686;2024-03-23T08:00:50;1.38;;;0.57;;
57593;SDS011;43423;46.510;6.686;2024-03-23T08:03:15;0.75;;;0.50;;
57593;SDS011;43423;46.510;6.686;2024-03-23T08:05:41;2.25;;;0.43;;
57593;SDS011;43423;46.510;6.686;2024-03-23T08:08:07;0.32;;;0.32;;
57593;SDS011;43423;46.510;6.686;2024-03-23T08:10:33;0.38;;;0.10;;
57593;SDS011;43423;46.510;6.686;2024-03-23T08:12:58;0.30;;;0.20;;
57593;SDS011;43423;46.510;6.686;2024-03-23T08:15:24;0.40;;;0.20;;
57593;SDS011;43423;46.510;6.686;2024-03-23T08:17:50;0.10;;;0.10;;
57593;SDS011;43423;46.510;6.686;2024-03-23T08:20:15;1.10;;;0.10;;
57593;SDS011;43423;46.510;6.686;2024-03-23T08:22:41;0.20;;;0.17;;
57593;SDS011;43423;46.510;6.686;2024-03-23T08:25:07;1.95;;;0.20;;
57593;SDS011;43423;46.510;6.686;2024-03-23T08:27:32;0.30;;;0.30;;
57593;SDS011;43423;46.510;6.686;2024-03-23T08:29:58;0.22;;;0.22;;
57593;SDS011;43423;46.510;6.686;2024-03-23T08:32:24;0.35;;;0.20;;
57593;SDS011;43423;46.510;6.686;2024-03-23T08:34:50;0.85;;;0.30;;
57593;SDS011;43423;46.510;6.686;2024-03-23T08:37:15;0.57;;;0.30;;
57593;SDS011;43423;46.510;6.686;2024-03-23T08:39:44;0.60;;;0.30;;
57593;SDS011;43423;46.510;6.686;2024-03-23T08:42:10;0.57;;;0.30;;
57593;SDS011;43423;46.510;6.686;2024-03-23T08:44:35;0.32;;;0.25;;
57593;SDS011;43423;46.510;6.686;2024-03-23T08:47:01;0.10;;;0.10;;
57593;SDS011;43423;46.510;6.686;2024-03-23T08:49:27;0.82;;;0.30;;
57593;SDS011;43423;46.510;6.686;2024-03-23T08:51:53;0.50;;;0.25;;
57593;SDS011;43423;46.510;6.686;2024-03-23T08:54:19;0.20;;;0.20;;
57593;SDS011;43423;46.510;6.686;2024-03-23T08:56:45;0.70;;;0.25;;
57593;SDS011;43423;46.510;6.686;2024-03-23T08:59:11;1.88;;;0.47;;
57593;SDS011;43423;46.510;6.686;2024-03-23T09:01:37;0.73;;;0.30;;
57593;SDS011;43423;46.510;6.686;2024-03-23T09:04:03;0.40;;;0.30;;
57593;SDS011;43423;46.510;6.686;2024-03-23T09:06:29;1.00;;;0.22;;
57593;SDS011;43423;46.510;6.686;2024-03-23T09:08:55;0.63;;;0.40;;
57593;SDS011;43423;46.510;6.686;2024-03-23T09:11:21;1.58;;;0.57;;
57593;SDS011;43423;46.510;6.686;2024-03-23T09:13:46;2.42;;;0.43;;
57593;SDS011;43423;46.510;6.686;2024-03-23T09:16:12;1.00;;;0.60;;
57593;SDS011;43423;46.510;6.686;2024-03-23T09:18:38;1.23;;;0.40;;
57593;SDS011;43423;46.510;6.686;2024-03-23T09:21:04;0.73;;;0.40;;
57593;SDS011;43423;46.510;6.686;2024-03-23T09:23:37;0.90;;;0.32;;
57593;SDS011;43423;46.510;6.686;2024-03-23T09:26:03;0.80;;;0.50;;
57593;SDS011;43423;46.510;6.686;2024-03-23T09:28:29;0.28;;;0.28;;
57593;SDS011;43423;46.510;6.686;2024-03-23T09:30:55;0.77;;;0.40;;
57593;SDS011;43423;46.510;6.686;2024-03-23T09:33:28;1.42;;;0.28;;
57593;SDS011;43423;46.510;6.686;2024-03-23T09:35:54;1.13;;;0.38;;
57593;SDS011;43423;46.510;6.686;2024-03-23T09:38:20;0.65;;;0.30;;
57593;SDS011;43423;46.510;6.686;2024-03-23T09:40:46;0.75;;;0.70;;
57593;SDS011;43423;46.510;6.686;2024-03-23T09:43:15;1.85;;;0.45;;
57593;SDS011;43423;46.510;6.686;2024-03-23T09:45:40;2.03;;;0.43;;
57593;SDS011;43423;46.510;6.686;2024-03-23T09:48:08;0.93;;;0.30;;
57593;SDS011;43423;46.510;6.686;2024-03-23T09:50:38;0.73;;;0.50;;
57593;SDS011;43423;46.510;6.686;2024-03-23T09:53:04;0.85;;;0.38;;
57593;SDS011;43423;46.510;6.686;2024-03-23T09:55:31;1.33;;;0.40;;
57593;SDS011;43423;46.510;6.686;2024-03-23T09:57:57;0.65;;;0.38;;
57593;SDS011;43423;46.510;6.686;2024-03-23T10:00:23;1.40;;;0.40;;
57593;SDS011;43423;46.510;6.686;2024-03-23T10:02:49;1.95;;;0.70;;
57593;SDS011;43423;46.510;6.686;2024-03-23T10:05:21;2.90;;;0.80;;
57593;SDS011;43423;46.510;6.686;2024-03-23T10:07:50;4.90;;;0.90;;
57593;SDS011;43423;46.510;6.686;2024-03-23T10:10:16;3.03;;;0.73;;
57593;SDS011;43423;46.510;6.686;2024-03-23T10:12:46;2.65;;;0.55;;
57593;SDS011;43423;46.510;6.686;2024-03-23T10:15:23;1.13;;;0.45;;
57593;SDS011;43423;46.510;6.686;2024-03-23T10:17:50;1.30;;;0.50;;
57593;SDS011;43423;46.510;6.686;2024-03-23T10:20:22;3.60;;;0.90;;
57593;SDS011;43423;46.510;6.686;2024-03-23T10:22:51;3.15;;;0.93;;
57593;SDS011;43423;46.510;6.686;2024-03-23T10:25:17;0.90;;;0.70;;
57593;SDS011;43423;46.510;6.686;2024-03-23T10:27:57;1.80;;;0.65;;
57593;SDS011;43423;46.510;6.686;2024-03-23T10:30:24;3.03;;;1.23;;
57593;SDS011;43423;46.510;6.686;2024-03-23T10:33:11;7.18;;;1.05;;
57593;SDS011;43423;46.510;6.686;2024-03-23T10:35:37;1.58;;;0.88;;
57593;SDS011;43423;46.510;6.686;2024-03-23T10:38:07;1.38;;;0.55;;
57593;SDS011;43423;46.510;6.686;2024-03-23T10:40:36;0.80;;;0.50;;
57593;SDS011;43423;46.510;6.686;2024-03-23T10:43:05;3.60;;;0.88;;
57593;SDS011;43423;46.510;6.686;2024-03-23T10:45:32;1.40;;;0.67;;
57593;SDS011;43423;46.510;6.686;2024-03-23T10:47:58;4.60;;;0.88;;
57593;SDS011;43423;46.510;6.686;2024-03-23T10:50:23;1.67;;;0.80;;
57593;SDS011;43423;46.510;6.686;2024-03-23T10:52:49;5.00;;;0.80;;
57593;SDS011;43423;46.510;6.686;2024-03-23T10:55:19;5.70;;;0.80;;
57593;SDS011;43423;46.510;6.686;2024-03-23T10:57:53;2.47;;;0.60;;
57593;SDS011;43423;46.510;6.686;2024-03-23T11:00:19;3.45;;;1.30;;
57593;SDS011;43423;46.510;6.686;2024-03-23T11:02:50;2.47;;;0.63;;
57593;SDS011;43423;46.510;6.686;2024-03-23T11:05:31;2.53;;;0.52;;
57593;SDS011;43423;46.510;6.686;2024-03-23T11:07:57;4.60;;;0.63;;
57593;SDS011;43423;46.510;6.686;2024-03-23T11:10:26;7.28;;;0.93;;
57593;SDS011;43423;46.510;6.686;2024-03-23T11:12:57;2.50;;;0.88;;
57593;SDS011;43423;46.510;6.686;2024-03-23T11:15:23;1.45;;;0.57;;
57593;SDS011;43423;46.510;6.686;2024-03-23T11:18:02;4.22;;;0.90;;
57593;SDS011;43423;46.510;6.686;2024-03-23T11:20:33;5.20;;;0.80;;
57593;SDS011;43423;46.510;6.686;2024-03-23T11:22:59;4.90;;;1.00;;
57593;SDS011;43423;46.510;6.686;2024-03-23T11:25:25;8.25;;;0.90;;
57593;SDS011;43423;46.510;6.686;2024-03-23T11:27:53;7.38;;;1.10;;
57593;SDS011;43423;46.510;6.686;2024-03-23T11:30:26;4.80;;;0.93;;
57593;SDS011;43423;46.510;6.686;2024-03-23T11:32:57;3.72;;;0.60;;
57593;SDS011;43423;46.510;6.686;2024-03-23T11:35:36;5.38;;;1.02;;
57593;SDS011;43423;46.510;6.686;2024-03-23T11:40:29;2.53;;;0.80;;
57593;SDS011;43423;46.510;6.686;2024-03-23T11:42:58;5.00;;;0.90;;
57593;SDS011;43423;46.510;6.686;2024-03-23T11:45:24;3.72;;;1.05;;
57593;SDS011;43423;46.510;6.686;2024-03-23T11:48:01;4.80;;;1.08;;
57593;SDS011;43423;46.510;6.686;2024-03-23T11:50:31;1.77;;;0.70;;
57593;SDS011;43423;46.510;6.686;2024-03-23T11:53:06;2.05;;;0.80;;
57593;SDS011;43423;46.510;6.686;2024-03-23T11:55:38;4.28;;;0.80;;
57593;SDS011;43423;46.510;6.686;2024-03-23T11:58:12;2.47;;;0.82;;
57593;SDS011;43423;46.510;6.686;2024-03-23T12:00:38;5.63;;;1.60;;
57593;SDS011;43423;46.510;6.686;2024-03-23T12:03:04;4.78;;;1.17;;
57593;SDS011;43423;46.510;6.686;2024-03-23T12:05:30;4.90;;;1.52;;
57593;SDS011;43423;46.510;6.686;2024-03-23T12:08:17;5.18;;;0.95;;
57593;SDS011;43423;46.510;6.686;2024-03-23T12:10:53;2.17;;;0.90;;
57593;SDS011;43423;46.510;6.686;2024-03-23T12:13:30;3.92;;;0.75;;
57593;SDS011;43423;46.510;6.686;2024-03-23T12:15:58;4.75;;;0.75;;
57593;SDS011;43423;46.510;6.686;2024-03-23T12:18:35;3.45;;;0.80;;
57593;SDS011;43423;46.510;6.686;2024-03-23T12:21:02;3.28;;;1.00;;
57593;SDS011;43423;46.510;6.686;2024-03-23T12:23:27;3.78;;;0.80;;
57593;SDS011;43423;46.510;6.686;2024-03-23T12:25:53;4.53;;;0.82;;
57593;SDS011;43423;46.510;6.686;2024-03-23T12:28:19;1.92;;;0.60;;
57593;SDS011;43423;46.510;6.686;2024-03-23T12:30:44;2.38;;;1.02;;
57593;SDS011;43423;46.510;6.686;2024-03-23T12:33:10;4.03;;;0.80;;
57593;SDS011;43423;46.510;6.686;2024-03-23T12:35:36;4.05;;;0.88;;
57593;SDS011;43423;46.510;6.686;2024-03-23T12:38:02;1.85;;;1.02;;
57593;SDS011;43423;46.510;6.686;2024-03-23T12:40:28;3.28;;;1.00;;
57593;SDS011;43423;46.510;6.686;2024-03-23T12:42:54;4.32;;;0.70;;
57593;SDS011;43423;46.510;6.686;2024-03-23T12:45:21;3.13;;;0.77;;
57593;SDS011;43423;46.510;6.686;2024-03-23T12:47:48;5.32;;;1.30;;
57593;SDS011;43423;46.510;6.686;2024-03-23T12:50:13;2.67;;;1.15;;
57593;SDS011;43423;46.510;6.686;2024-03-23T12:52:39;3.70;;;0.75;;
57593;SDS011;43423;46.510;6.686;2024-03-23T12:55:05;1.70;;;0.60;;
57593;SDS011;43423;46.510;6.686;2024-03-23T12:57:33;5.88;;;1.20;;
57593;SDS011;43423;46.510;6.686;2024-03-23T12:59:58;2.35;;;0.70;;
57593;SDS011;43423;46.510;6.686;2024-03-23T13:02:26;2.42;;;0.80;;
57593;SDS011;43423;46.510;6.686;2024-03-23T13:04:52;4.95;;;0.90;;
57593;SDS011;43423;46.510;6.686;2024-03-23T13:07:19;2.08;;;1.30;;
57593;SDS011;43423;46.510;6.686;2024-03-23T13:09:46;2.75;;;0.77;;
57593;SDS011;43423;46.510;6.686;2024-03-23T13:12:12;1.45;;;0.75;;
57593;SDS011;43423;46.510;6.686;2024-03-23T13:14:38;8.98;;;0.95;;
57593;SDS011;43423;46.510;6.686;2024-03-23T13:17:05;7.40;;;0.93;;
57593;SDS011;43423;46.510;6.686;2024-03-23T13:19:31;7.38;;;1.00;;
57593;SDS011;43423;46.510;6.686;2024-03-23T13:21:57;1.73;;;0.40;;
57593;SDS011;43423;46.510;6.686;2024-03-23T13:24:26;2.72;;;0.85;;
57593;SDS011;43423;46.510;6.686;2024-03-23T13:26:54;5.30;;;0.90;;
57593;SDS011;43423;46.510;6.686;2024-03-23T13:29:20;4.53;;;1.25;;
57593;SDS011;43423;46.510;6.686;2024-03-23T13:31:47;2.45;;;0.60;;
57593;SDS011;43423;46.510;6.686;2024-03-23T13:34:15;1.58;;;0.80;;
57593;SDS011;43423;46.510;6.686;2024-03-23T13:36:44;4.60;;;1.00;;
57593;SDS011;43423;46.510;6.686;2024-03-23T13:39:11;2.30;;;1.10;;
57593;SDS011;43423;46.510;6.686;2024-03-23T13:41:38;1.17;;;0.47;;
57593;SDS011;43423;46.510;6.686;2024-03-23T13:44:10;3.13;;;0.82;;
57593;SDS011;43423;46.510;6.686;2024-03-23T13:46:37;2.50;;;0.60;;
57593;SDS011;43423;46.510;6.686;2024-03-23T13:51:54;7.85;;;1.00;;
57593;SDS011;43423;46.510;6.686;2024-03-23T13:54:20;7.22;;;0.77;;
57593;SDS011;43423;46.510;6.686;2024-03-23T13:56:53;3.63;;;0.65;;
57593;SDS011;43423;46.510;6.686;2024-03-23T13:59:20;2.90;;;0.95;;
57593;SDS011;43423;46.510;6.686;2024-03-23T14:01:48;4.28;;;0.75;;
57593;SDS011;43423;46.510;6.686;2024-03-23T14:04:14;5.13;;;1.52;;
57593;SDS011;43423;46.510;6.686;2024-03-23T14:06:42;5.40;;;0.80;;
57593;SDS011;43423;46.510;6.686;2024-03-23T14:09:11;2.08;;;0.80;;
57593;SDS011;43423;46.510;6.686;2024-03-23T14:11:37;3.80;;;0.88;;
57593;SDS011;43423;46.510;6.686;2024-03-23T14:14:03;3.15;;;1.25;;
57593;SDS011;43423;46.510;6.686;2024-03-23T14:16:30;3.92;;;0.88;;
57593;SDS011;43423;46.510;6.686;2024-03-23T14:18:56;1.67;;;0.50;;
57593;SDS011;43423;46.510;6.686;2024-03-23T14:21:22;1.45;;;0.55;;
57593;SDS011;43423;46.510;6.686;2024-03-23T14:23:48;2.97;;;0.63;;
57593;SDS011;43423;46.510;6.686;2024-03-23T14:26:13;3.13;;;0.70;;
57593;SDS011;43423;46.510;6.686;2024-03-23T14:28:39;2.15;;;0.80;;
57593;SDS011;43423;46.510;6.686;2024-03-23T14:31:05;1.20;;;0.65;;
57593;SDS011;43423;46.510;6.686;2024-03-23T14:33:38;3.78;;;0.80;;
57593;SDS011;43423;46.510;6.686;2024-03-23T14:36:11;4.13;;;0.90;;
57593;SDS011;43423;46.510;6.686;2024-03-23T14:38:36;2.30;;;0.55;;
57593;SDS011;43423;46.510;6.686;2024-03-23T14:41:02;3.63;;;0.70;;
57593;SDS011;43423;46.510;6.686;2024-03-23T14:43:28;6.07;;;0.80;;
57593;SDS011;43423;46.510;6.686;2024-03-23T14:46:08;3.15;;;0.90;;
57593;SDS011;43423;46.510;6.686;2024-03-23T14:48:35;3.47;;;0.73;;
57593;SDS011;43423;46.510;6.686;2024-03-23T14:51:01;7.53;;;0.80;;
57593;SDS011;43423;46.510;6.686;2024-03-23T14:53:34;3.30;;;0.80;;
57593;SDS011;43423;46.510;6.686;2024-03-23T14:56:01;3.92;;;0.70;;
57593;SDS011;43423;46.510;6.686;2024-03-23T14:58:27;3.95;;;0.70;;
57593;SDS011;43423;46.510;6.686;2024-03-23T15:01:03;3.65;;;0.70;;
57593;SDS011;43423;46.510;6.686;2024-03-23T15:03:30;2.60;;;0.60;;
57593;SDS011;43423;46.510;6.686;2024-03-23T15:05:57;8.38;;;0.98;;
57593;SDS011;43423;46.510;6.686;2024-03-23T15:08:24;1.65;;;0.50;;
57593;SDS011;43423;46.510;6.686;2024-03-23T15:10:50;2.75;;;0.68;;
57593;SDS011;43423;46.510;6.686;2024-03-23T15:13:16;1.52;;;1.02;;
57593;SDS011;43423;46.510;6.686;2024-03-23T15:15:42;4.53;;;0.88;;
57593;SDS011;43423;46.510;6.686;2024-03-23T15:18:14;6.10;;;0.57;;
57593;SDS011;43423;46.510;6.686;2024-03-23T15:20:40;6.93;;;0.88;;
57593;SDS011;43423;46.510;6.686;2024-03-23T15:23:19;2.17;;;0.98;;
57593;SDS011;43423;46.510;6.686;2024-03-23T15:25:45;3.63;;;0.70;;
57593;SDS011;43423;46.510;6.686;2024-03-23T15:28:11;5.32;;;0.43;;
57593;SDS011;43423;46.510;6.686;2024-03-23T15:30:37;0.90;;;0.40;;
57593;SDS011;43423;46.510;6.686;2024-03-23T15:33:02;1.95;;;0.60;;
57593;SDS011;43423;46.510;6.686;2024-03-23T15:35:28;1.58;;;0.47;;
57593;SDS011;43423;46.510;6.686;2024-03-23T15:37:54;2.13;;;0.85;;
57593;SDS011;43423;46.510;6.686;2024-03-23T15:40:20;5.22;;;0.80;;
57593;SDS011;43423;46.510;6.686;2024-03-23T15:42:45;1.63;;;0.65;;